sensor_id;sensor_type;location;lat;lon;timestamp;P1;P2;P0
65556;PMS3003;52200;53.490;14.376;2022-09-09T00:04:37;14.00;11.00;7.00
65556;PMS3003;52200;53.490;14.376;2022-09-09T00:07:16;14.00;10.60;6.80
65556;PMS3003;52200;53.490;14.376;2022-09-09T00:09:46;14.60;10.60;7.00
65556;PMS3003;52200;53.490;14.376;2022-09-09T00:12:24;13.80;10.80;6.80
65556;PMS3003;52200;53.490;14.376;2022-09-09T00:15:13;12.80;9.60;6.20
65556;PMS3003;52200;53.490;14.376;2022-09-09T00:17:58;11.40;8.00;5.20
65556;PMS3003;52200;53.490;14.376;2022-09-09T00:23:32;15.00;11.00;6.80
65556;PMS3003;52200;53.490;14.376;2022-09-09T00:26:09;14.00;10.00;6.20
65556;PMS3003;52200;53.490;14.376;2022-09-09T00:28:46;13.20;10.00;7.00
65556;PMS3003;52200;53.490;14.376;2022-09-09T00:31:26;13.00;8.80;6.20
65556;PMS3003;52200;53.490;14.376;2022-09-09T00:33:54;12.80;9.60;5.00
65556;PMS3003;52200;53.490;14.376;2022-09-09T00:36:28;12.40;8.20;6.00
65556;PMS3003;52200;53.490;14.376;2022-09-09T00:38:59;13.00;9.00;7.00
65556;PMS3003;52200;53.490;14.376;2022-09-09T00:44:28;12.60;9.40;5.40
65556;PMS3003;52200;53.490;14.376;2022-09-09T00:47:01;14.20;10.40;6.60
65556;PMS3003;52200;53.490;14.376;2022-09-09T00:52:27;15.60;12.40;7.20
65556;PMS3003;52200;53.490;14.376;2022-09-09T00:57:36;15.00;11.20;7.00
65556;PMS3003;52200;53.490;14.376;2022-09-09T01:07:57;16.80;12.40;8.00
65556;PMS3003;52200;53.490;14.376;2022-09-09T01:10:36;14.20;11.00;7.00
65556;PMS3003;52200;53.490;14.376;2022-09-09T01:13:31;14.00;10.60;6.40
65556;PMS3003;52200;53.490;14.376;2022-09-09T01:16:00;15.00;10.80;6.80
65556;PMS3003;52200;53.490;14.376;2022-09-09T01:18:34;14.20;10.20;6.00
65556;PMS3003;52200;53.490;14.376;2022-09-09T01:26:56;16.60;13.20;8.00
65556;PMS3003;52200;53.490;14.376;2022-09-09T01:29:26;13.00;10.00;6.00
65556;PMS3003;52200;53.490;14.376;2022-09-09T01:31:55;13.50;9.75;7.00
65556;PMS3003;52200;53.490;14.376;2022-09-09T01:34:22;12.60;8.40;5.80
65556;PMS3003;52200;53.490;14.376;2022-09-09T01:36:55;15.00;11.00;8.00
65556;PMS3003;52200;53.490;14.376;2022-09-09T01:39:22;15.00;11.40;7.40
65556;PMS3003;52200;53.490;14.376;2022-09-09T01:41:48;13.00;9.60;7.00
65556;PMS3003;52200;53.490;14.376;2022-09-09T01:44:14;13.00;10.00;6.00
65556;PMS3003;52200;53.490;14.376;2022-09-09T01:46:39;15.00;11.50;7.75
65556;PMS3003;52200;53.490;14.376;2022-09-09T01:49:06;14.50;10.50;6.75
65556;PMS3003;52200;53.490;14.376;2022-09-09T01:51:33;12.20;9.00;5.60
65556;PMS3003;52200;53.490;14.376;2022-09-09T01:54:00;15.80;11.60;7.00
65556;PMS3003;52200;53.490;14.376;2022-09-09T01:56:35;16.60;11.60;8.80
65556;PMS3003;52200;53.490;14.376;2022-09-09T02:12:38;17.80;11.80;8.20
65556;PMS3003;52200;53.490;14.376;2022-09-09T02:15:11;15.00;12.00;7.80
65556;PMS3003;52200;53.490;14.376;2022-09-09T02:17:46;15.00;11.80;7.60
65556;PMS3003;52200;53.490;14.376;2022-09-09T02:20:15;14.40;11.00;8.00
65556;PMS3003;52200;53.490;14.376;2022-09-09T02:22:43;14.80;11.80;8.20
65556;PMS3003;52200;53.490;14.376;2022-09-09T02:25:14;16.20;12.20;7.40
65556;PMS3003;52200;53.490;14.376;2022-09-09T02:27:45;15.40;11.60;6.00
65556;PMS3003;52200;53.490;14.376;2022-09-09T02:30:13;15.00;11.60;7.00
65556;PMS3003;52200;53.490;14.376;2022-09-09T02:32:40;16.40;13.00;8.00
65556;PMS3003;52200;53.490;14.376;2022-09-09T02:35:09;14.80;10.60;6.60
65556;PMS3003;52200;53.490;14.376;2022-09-09T02:37:38;13.80;10.40;6.60
65556;PMS3003;52200;53.490;14.376;2022-09-09T02:40:07;16.00;13.00;8.20
65556;PMS3003;52200;53.490;14.376;2022-09-09T02:42:45;22.60;18.20;11.20
65556;PMS3003;52200;53.490;14.376;2022-09-09T02:45:12;20.00;15.60;11.00
65556;PMS3003;52200;53.490;14.376;2022-09-09T02:47:50;19.00;16.00;10.00
65556;PMS3003;52200;53.490;14.376;2022-09-09T02:50:33;18.20;15.40;10.00
65556;PMS3003;52200;53.490;14.376;2022-09-09T02:53:02;24.40;19.40;11.80
65556;PMS3003;52200;53.490;14.376;2022-09-09T02:55:49;21.40;17.80;11.80
65556;PMS3003;52200;53.490;14.376;2022-09-09T02:58:30;23.60;16.80;12.00
65556;PMS3003;52200;53.490;14.376;2022-09-09T03:00:56;26.00;20.80;14.00
65556;PMS3003;52200;53.490;14.376;2022-09-09T03:03:23;26.60;22.60;13.80
65556;PMS3003;52200;53.490;14.376;2022-09-09T03:05:48;22.25;16.25;11.00
65556;PMS3003;52200;53.490;14.376;2022-09-09T03:08:14;23.25;18.00;12.00
65556;PMS3003;52200;53.490;14.376;2022-09-09T03:10:40;23.40;18.20;12.00
65556;PMS3003;52200;53.490;14.376;2022-09-09T03:13:06;24.50;21.00;13.00
65556;PMS3003;52200;53.490;14.376;2022-09-09T03:15:32;25.40;19.80;12.80
65556;PMS3003;52200;53.490;14.376;2022-09-09T03:17:59;24.80;19.60;12.60
65556;PMS3003;52200;53.490;14.376;2022-09-09T03:20:25;26.00;21.00;13.40
65556;PMS3003;52200;53.490;14.376;2022-09-09T03:22:53;22.60;19.00;11.80
65556;PMS3003;52200;53.490;14.376;2022-09-09T03:25:19;27.40;22.60;14.00
65556;PMS3003;52200;53.490;14.376;2022-09-09T03:27:45;20.20;17.00;10.40
65556;PMS3003;52200;53.490;14.376;2022-09-09T03:30:11;19.50;15.25;9.50
65556;PMS3003;52200;53.490;14.376;2022-09-09T03:32:36;23.50;18.00;11.50
65556;PMS3003;52200;53.490;14.376;2022-09-09T03:35:02;21.75;17.75;11.00
65556;PMS3003;52200;53.490;14.376;2022-09-09T03:37:28;24.00;19.40;14.00
65556;PMS3003;52200;53.490;14.376;2022-09-09T03:39:53;22.00;17.50;11.00
65556;PMS3003;52200;53.490;14.376;2022-09-09T03:42:19;19.25;15.50;10.75
65556;PMS3003;52200;53.490;14.376;2022-09-09T03:44:46;23.00;15.40;10.60
65556;PMS3003;52200;53.490;14.376;2022-09-09T03:47:15;20.60;16.60;12.00
65556;PMS3003;52200;53.490;14.376;2022-09-09T03:49:43;19.80;16.00;9.80
65556;PMS3003;52200;53.490;14.376;2022-09-09T03:52:09;22.00;17.50;11.00
65556;PMS3003;52200;53.490;14.376;2022-09-09T03:54:34;20.40;16.00;10.40
65556;PMS3003;52200;53.490;14.376;2022-09-09T03:57:00;20.50;16.00;9.25
65556;PMS3003;52200;53.490;14.376;2022-09-09T03:59:26;21.75;17.75;11.00
65556;PMS3003;52200;53.490;14.376;2022-09-09T04:01:52;20.60;16.40;10.40
65556;PMS3003;52200;53.490;14.376;2022-09-09T04:04:18;19.20;14.80;9.60
65556;PMS3003;52200;53.490;14.376;2022-09-09T04:06:45;20.80;16.20;9.80
65556;PMS3003;52200;53.490;14.376;2022-09-09T04:09:11;19.20;15.20;9.00
65556;PMS3003;52200;53.490;14.376;2022-09-09T04:11:36;20.50;17.00;10.50
65556;PMS3003;52200;53.490;14.376;2022-09-09T04:14:02;24.25;20.00;12.50
65556;PMS3003;52200;53.490;14.376;2022-09-09T04:16:31;28.40;22.20;14.00
65556;PMS3003;52200;53.490;14.376;2022-09-09T04:18:57;29.80;23.20;14.00
65556;PMS3003;52200;53.490;14.376;2022-09-09T04:21:23;27.75;22.00;13.00
65556;PMS3003;52200;53.490;14.376;2022-09-09T04:23:48;23.50;20.00;12.50
65556;PMS3003;52200;53.490;14.376;2022-09-09T04:26:14;21.50;17.00;11.00
65556;PMS3003;52200;53.490;14.376;2022-09-09T04:28:39;26.00;22.00;14.00
65556;PMS3003;52200;53.490;14.376;2022-09-09T04:31:06;25.50;19.50;12.75
65556;PMS3003;52200;53.490;14.376;2022-09-09T04:33:34;25.60;22.40;14.00
65556;PMS3003;52200;53.490;14.376;2022-09-09T04:36:00;27.40;22.80;14.40
65556;PMS3003;52200;53.490;14.376;2022-09-09T04:38:26;23.25;19.75;12.00
65556;PMS3003;52200;53.490;14.376;2022-09-09T04:40:51;28.00;23.25;15.00
65556;PMS3003;52200;53.490;14.376;2022-09-09T04:43:19;32.20;29.00;17.20
65556;PMS3003;52200;53.490;14.376;2022-09-09T04:45:49;29.20;24.60;15.20
65556;PMS3003;52200;53.490;14.376;2022-09-09T04:48:16;28.20;24.20;15.00
65556;PMS3003;52200;53.490;14.376;2022-09-09T04:50:42;31.60;26.60;16.20
65556;PMS3003;52200;53.490;14.376;2022-09-09T04:53:08;27.75;23.25;14.75
65556;PMS3003;52200;53.490;14.376;2022-09-09T04:55:34;31.80;26.80;17.20
65556;PMS3003;52200;53.490;14.376;2022-09-09T04:58:07;34.80;28.60;18.60
65556;PMS3003;52200;53.490;14.376;2022-09-09T05:00:37;31.20;26.80;16.80
65556;PMS3003;52200;53.490;14.376;2022-09-09T05:03:03;29.60;24.60;16.00
65556;PMS3003;52200;53.490;14.376;2022-09-09T05:05:34;31.40;23.00;15.00
65556;PMS3003;52200;53.490;14.376;2022-09-09T05:08:06;36.20;30.80;18.00
65556;PMS3003;52200;53.490;14.376;2022-09-09T05:10:33;30.60;26.60;17.40
65556;PMS3003;52200;53.490;14.376;2022-09-09T05:13:01;34.00;28.40;17.20
65556;PMS3003;52200;53.490;14.376;2022-09-09T05:15:27;38.50;30.50;17.75
65556;PMS3003;52200;53.490;14.376;2022-09-09T05:17:52;30.25;25.75;15.50
65556;PMS3003;52200;53.490;14.376;2022-09-09T05:20:23;31.80;27.40;17.20
65556;PMS3003;52200;53.490;14.376;2022-09-09T05:22:52;30.00;22.00;15.00
65556;PMS3003;52200;53.490;14.376;2022-09-09T05:25:18;31.80;26.20;16.80
65556;PMS3003;52200;53.490;14.376;2022-09-09T05:27:44;31.20;24.60;14.60
65556;PMS3003;52200;53.490;14.376;2022-09-09T05:30:10;32.50;28.00;17.00
65556;PMS3003;52200;53.490;14.376;2022-09-09T05:32:36;35.20;26.80;17.00
65556;PMS3003;52200;53.490;14.376;2022-09-09T05:35:01;32.00;25.75;15.75
65556;PMS3003;52200;53.490;14.376;2022-09-09T05:37:27;29.80;26.00;15.60
65556;PMS3003;52200;53.490;14.376;2022-09-09T05:39:54;32.60;25.60;16.40
65556;PMS3003;52200;53.490;14.376;2022-09-09T05:42:19;32.50;26.25;14.25
65556;PMS3003;52200;53.490;14.376;2022-09-09T05:44:45;34.00;29.25;18.00
65556;PMS3003;52200;53.490;14.376;2022-09-09T05:47:10;30.25;27.00;17.25
65556;PMS3003;52200;53.490;14.376;2022-09-09T05:49:36;37.00;29.50;18.75
65556;PMS3003;52200;53.490;14.376;2022-09-09T05:52:02;32.25;26.50;16.00
65556;PMS3003;52200;53.490;14.376;2022-09-09T05:54:28;35.20;29.20;17.00
65556;PMS3003;52200;53.490;14.376;2022-09-09T05:56:54;40.00;29.60;17.80
65556;PMS3003;52200;53.490;14.376;2022-09-09T05:59:20;33.80;26.00;16.00
65556;PMS3003;52200;53.490;14.376;2022-09-09T06:01:48;30.40;24.40;15.40
65556;PMS3003;52200;53.490;14.376;2022-09-09T06:04:13;29.25;23.00;15.00
65556;PMS3003;52200;53.490;14.376;2022-09-09T06:06:39;30.50;26.00;15.50
65556;PMS3003;52200;53.490;14.376;2022-09-09T06:09:07;33.40;26.60;16.00
65556;PMS3003;52200;53.490;14.376;2022-09-09T06:11:35;31.00;26.80;17.00
65556;PMS3003;52200;53.490;14.376;2022-09-09T06:14:04;28.20;23.20;14.60
65556;PMS3003;52200;53.490;14.376;2022-09-09T06:16:30;30.00;24.60;16.00
65556;PMS3003;52200;53.490;14.376;2022-09-09T06:18:59;29.00;24.00;15.00
65556;PMS3003;52200;53.490;14.376;2022-09-09T06:21:30;28.40;22.80;13.80
65556;PMS3003;52200;53.490;14.376;2022-09-09T06:24:04;28.00;23.40;13.80
65556;PMS3003;52200;53.490;14.376;2022-09-09T06:26:31;27.80;21.20;13.00
65556;PMS3003;52200;53.490;14.376;2022-09-09T06:28:58;24.00;19.00;10.60
65556;PMS3003;52200;53.490;14.376;2022-09-09T06:31:25;28.20;24.00;15.00
65556;PMS3003;52200;53.490;14.376;2022-09-09T06:33:55;27.00;23.00;14.80
65556;PMS3003;52200;53.490;14.376;2022-09-09T06:36:23;28.60;24.40;14.80
65556;PMS3003;52200;53.490;14.376;2022-09-09T06:38:52;30.80;25.40;14.40
65556;PMS3003;52200;53.490;14.376;2022-09-09T06:41:19;28.40;23.40;13.00
65556;PMS3003;52200;53.490;14.376;2022-09-09T06:43:46;31.40;23.60;14.60
65556;PMS3003;52200;53.490;14.376;2022-09-09T06:46:22;24.40;20.80;14.40
65556;PMS3003;52200;53.490;14.376;2022-09-09T06:48:49;27.40;22.20;13.40
65556;PMS3003;52200;53.490;14.376;2022-09-09T06:51:19;25.00;18.50;13.00
65556;PMS3003;52200;53.490;14.376;2022-09-09T06:53:52;28.60;20.80;12.60
65556;PMS3003;52200;53.490;14.376;2022-09-09T06:56:32;25.00;21.00;12.20
65556;PMS3003;52200;53.490;14.376;2022-09-09T06:59:00;26.60;21.60;13.40
65556;PMS3003;52200;53.490;14.376;2022-09-09T07:01:30;24.20;20.40;13.00
65556;PMS3003;52200;53.490;14.376;2022-09-09T07:03:58;24.60;19.20;13.00
65556;PMS3003;52200;53.490;14.376;2022-09-09T07:06:25;29.40;22.80;13.80
65556;PMS3003;52200;53.490;14.376;2022-09-09T07:08:58;31.40;26.60;12.60
65556;PMS3003;52200;53.490;14.376;2022-09-09T07:11:26;26.20;19.60;12.00
65556;PMS3003;52200;53.490;14.376;2022-09-09T07:13:53;25.60;20.80;14.00
65556;PMS3003;52200;53.490;14.376;2022-09-09T07:16:20;33.20;27.00;16.40
65556;PMS3003;52200;53.490;14.376;2022-09-09T07:18:48;34.20;29.80;16.00
65556;PMS3003;52200;53.490;14.376;2022-09-09T07:21:15;30.60;24.00;14.80
65556;PMS3003;52200;53.490;14.376;2022-09-09T07:23:41;37.20;25.40;15.20
65556;PMS3003;52200;53.490;14.376;2022-09-09T07:26:07;28.50;23.75;13.75
65556;PMS3003;52200;53.490;14.376;2022-09-09T07:28:38;29.40;21.60;13.00
65556;PMS3003;52200;53.490;14.376;2022-09-09T07:31:05;29.00;23.20;15.40
65556;PMS3003;52200;53.490;14.376;2022-09-09T07:33:33;32.60;27.80;16.60
65556;PMS3003;52200;53.490;14.376;2022-09-09T07:38:28;30.00;26.00;17.00
65556;PMS3003;52200;53.490;14.376;2022-09-09T07:41:01;30.00;24.50;15.75
65556;PMS3003;52200;53.490;14.376;2022-09-09T07:43:28;34.20;26.80;16.00
65556;PMS3003;52200;53.490;14.376;2022-09-09T07:45:57;33.75;27.25;15.00
65556;PMS3003;52200;53.490;14.376;2022-09-09T07:48:23;33.60;26.80;16.60
65556;PMS3003;52200;53.490;14.376;2022-09-09T07:50:49;31.20;25.40;16.00
65556;PMS3003;52200;53.490;14.376;2022-09-09T07:53:16;34.60;28.60;17.00
65556;PMS3003;52200;53.490;14.376;2022-09-09T07:55:41;35.75;28.00;16.00
65556;PMS3003;52200;53.490;14.376;2022-09-09T07:58:06;29.75;24.50;15.50
65556;PMS3003;52200;53.490;14.376;2022-09-09T08:00:32;29.00;24.50;14.50
65556;PMS3003;52200;53.490;14.376;2022-09-09T08:02:58;35.00;29.20;18.60
65556;PMS3003;52200;53.490;14.376;2022-09-09T08:05:27;29.20;24.40;14.60
65556;PMS3003;52200;53.490;14.376;2022-09-09T08:07:53;29.40;24.60;16.40
65556;PMS3003;52200;53.490;14.376;2022-09-09T08:10:18;32.00;25.25;15.00
65556;PMS3003;52200;53.490;14.376;2022-09-09T08:12:44;31.50;25.75;15.00
65556;PMS3003;52200;53.490;14.376;2022-09-09T08:15:10;33.00;24.80;14.80
65556;PMS3003;52200;53.490;14.376;2022-09-09T08:17:35;27.40;24.00;14.80
65556;PMS3003;52200;53.490;14.376;2022-09-09T08:20:02;26.60;22.00;13.60
65556;PMS3003;52200;53.490;14.376;2022-09-09T08:22:31;28.60;24.80;15.00
65556;PMS3003;52200;53.490;14.376;2022-09-09T08:24:57;26.00;22.00;13.75
65556;PMS3003;52200;53.490;14.376;2022-09-09T08:27:22;30.00;24.00;15.00
65556;PMS3003;52200;53.490;14.376;2022-09-09T08:29:49;29.80;23.00;15.00
65556;PMS3003;52200;53.490;14.376;2022-09-09T08:32:14;30.25;22.50;14.00
65556;PMS3003;52200;53.490;14.376;2022-09-09T08:34:41;31.80;27.40;17.40
65556;PMS3003;52200;53.490;14.376;2022-09-09T08:37:07;31.50;25.50;15.00
65556;PMS3003;52200;53.490;14.376;2022-09-09T08:39:32;28.00;24.50;16.00
65556;PMS3003;52200;53.490;14.376;2022-09-09T08:55:59;35.80;28.80;18.60
65556;PMS3003;52200;53.490;14.376;2022-09-09T08:58:12;28.60;24.80;16.00
65556;PMS3003;52200;53.490;14.376;2022-09-09T09:00:50;30.60;25.00;16.20
65556;PMS3003;52200;53.490;14.376;2022-09-09T09:09:00;29.00;22.20;15.60
65556;PMS3003;52200;53.490;14.376;2022-09-09T09:11:43;28.40;23.80;15.80
65556;PMS3003;52200;53.490;14.376;2022-09-09T09:14:26;26.60;23.20;15.00
65556;PMS3003;52200;53.490;14.376;2022-09-09T09:16:56;28.40;24.40;15.40
65556;PMS3003;52200;53.490;14.376;2022-09-09T09:19:24;24.00;20.00;13.00
65556;PMS3003;52200;53.490;14.376;2022-09-09T09:24:58;22.20;17.60;11.00
65556;PMS3003;52200;53.490;14.376;2022-09-09T09:27:34;24.80;20.40;13.80
65556;PMS3003;52200;53.490;14.376;2022-09-09T09:30:20;23.20;18.80;12.00
65556;PMS3003;52200;53.490;14.376;2022-09-09T09:35:33;25.60;20.60;12.60
65556;PMS3003;52200;53.490;14.376;2022-09-09T09:37:59;20.75;17.75;11.25
65556;PMS3003;52200;53.490;14.376;2022-09-09T09:40:26;24.60;20.60;13.00
65556;PMS3003;52200;53.490;14.376;2022-09-09T09:42:56;20.50;17.00;11.75
65556;PMS3003;52200;53.490;14.376;2022-09-09T09:45:29;22.60;18.80;11.00
65556;PMS3003;52200;53.490;14.376;2022-09-09T09:48:04;20.80;17.00;10.00
65556;PMS3003;52200;53.490;14.376;2022-09-09T09:50:32;24.60;21.20;12.00
65556;PMS3003;52200;53.490;14.376;2022-09-09T09:53:02;27.20;19.80;11.20
65556;PMS3003;52200;53.490;14.376;2022-09-09T09:55:30;22.00;17.80;11.60
65556;PMS3003;52200;53.490;14.376;2022-09-09T09:58:05;20.80;16.80;10.80
65556;PMS3003;52200;53.490;14.376;2022-09-09T10:00:32;20.00;16.80;11.80
65556;PMS3003;52200;53.490;14.376;2022-09-09T10:03:00;24.80;19.00;12.60
65556;PMS3003;52200;53.490;14.376;2022-09-09T10:05:27;20.80;18.00;12.00
65556;PMS3003;52200;53.490;14.376;2022-09-09T10:08:10;20.00;16.00;10.00
65556;PMS3003;52200;53.490;14.376;2022-09-09T10:10:58;18.00;13.80;10.20
65556;PMS3003;52200;53.490;14.376;2022-09-09T10:14:02;20.00;15.20;10.80
65556;PMS3003;52200;53.490;14.376;2022-09-09T10:16:56;20.60;17.40;11.00
65556;PMS3003;52200;53.490;14.376;2022-09-09T10:19:45;20.60;15.60;9.00
65556;PMS3003;52200;53.490;14.376;2022-09-09T10:22:35;18.80;15.20;9.00
65556;PMS3003;52200;53.490;14.376;2022-09-09T10:25:22;16.60;13.00;8.00
65556;PMS3003;52200;53.490;14.376;2022-09-09T10:28:18;15.80;12.40;8.80
65556;PMS3003;52200;53.490;14.376;2022-09-09T10:31:02;16.60;13.60;8.20
65556;PMS3003;52200;53.490;14.376;2022-09-09T10:33:45;16.20;13.20;8.20
65556;PMS3003;52200;53.490;14.376;2022-09-09T10:36:20;17.60;13.00;7.00
65556;PMS3003;52200;53.490;14.376;2022-09-09T10:49:45;14.25;10.00;5.75
65556;PMS3003;52200;53.490;14.376;2022-09-09T10:52:52;14.20;10.60;6.80
65556;PMS3003;52200;53.490;14.376;2022-09-09T10:55:43;14.00;8.40;5.60
65556;PMS3003;52200;53.490;14.376;2022-09-09T10:59:16;12.00;7.80;5.80
65556;PMS3003;52200;53.490;14.376;2022-09-09T11:01:24;14.40;10.60;6.00
65556;PMS3003;52200;53.490;14.376;2022-09-09T11:03:56;14.00;10.00;5.00
65556;PMS3003;52200;53.490;14.376;2022-09-09T11:06:48;12.20;7.20;5.40
65556;PMS3003;52200;53.490;14.376;2022-09-09T11:09:19;12.00;8.40;6.00
65556;PMS3003;52200;53.490;14.376;2022-09-09T11:17:24;12.80;9.20;5.60
65556;PMS3003;52200;53.490;14.376;2022-09-09T11:19:58;12.80;8.80;5.80
65556;PMS3003;52200;53.490;14.376;2022-09-09T11:22:28;16.50;11.75;7.00
65556;PMS3003;52200;53.490;14.376;2022-09-09T11:25:16;13.00;10.00;7.20
65556;PMS3003;52200;53.490;14.376;2022-09-09T11:33:28;11.40;7.00;5.00
65556;PMS3003;52200;53.490;14.376;2022-09-09T11:42:05;11.00;8.00;4.80
65556;PMS3003;52200;53.490;14.376;2022-09-09T11:44:51;12.40;10.00;5.80
65556;PMS3003;52200;53.490;14.376;2022-09-09T11:47:26;11.20;7.80;5.00
65556;PMS3003;52200;53.490;14.376;2022-09-09T11:52:41;11.00;7.40;4.20
65556;PMS3003;52200;53.490;14.376;2022-09-09T11:58:00;8.40;6.20;3.00
65556;PMS3003;52200;53.490;14.376;2022-09-09T12:00:37;8.60;5.60;3.00
65556;PMS3003;52200;53.490;14.376;2022-09-09T12:08:43;8.20;8.20;3.40
65556;PMS3003;52200;53.490;14.376;2022-09-09T12:11:11;9.80;7.40;3.80
65556;PMS3003;52200;53.490;14.376;2022-09-09T12:13:36;8.00;6.50;3.00
65556;PMS3003;52200;53.490;14.376;2022-09-09T12:16:02;8.00;7.00;3.00
65556;PMS3003;52200;53.490;14.376;2022-09-09T12:18:37;8.00;4.80;2.60
65556;PMS3003;52200;53.490;14.376;2022-09-09T12:21:31;6.80;5.20;2.00
65556;PMS3003;52200;53.490;14.376;2022-09-09T12:24:08;5.80;5.00;1.60
65556;PMS3003;52200;53.490;14.376;2022-09-09T12:31:54;7.00;4.20;2.00
65556;PMS3003;52200;53.490;14.376;2022-09-09T12:37:02;6.40;4.00;1.60
65556;PMS3003;52200;53.490;14.376;2022-09-09T12:39:33;7.60;5.60;2.00
65556;PMS3003;52200;53.490;14.376;2022-09-09T12:42:03;6.60;4.40;2.00
65556;PMS3003;52200;53.490;14.376;2022-09-09T12:44:29;5.80;4.20;2.00
65556;PMS3003;52200;53.490;14.376;2022-09-09T12:46:58;5.80;5.00;1.20
65556;PMS3003;52200;53.490;14.376;2022-09-09T12:49:31;5.40;5.00;1.60
65556;PMS3003;52200;53.490;14.376;2022-09-09T12:52:01;7.60;5.20;1.60
65556;PMS3003;52200;53.490;14.376;2022-09-09T12:54:30;7.20;6.20;2.00
65556;PMS3003;52200;53.490;14.376;2022-09-09T12:56:57;6.40;5.80;2.20
65556;PMS3003;52200;53.490;14.376;2022-09-09T12:59:25;7.00;6.00;3.00
65556;PMS3003;52200;53.490;14.376;2022-09-09T13:01:56;6.40;5.00;1.40
65556;PMS3003;52200;53.490;14.376;2022-09-09T13:04:23;5.60;4.20;2.00
65556;PMS3003;52200;53.490;14.376;2022-09-09T13:06:48;5.50;3.50;1.00
65556;PMS3003;52200;53.490;14.376;2022-09-09T13:09:14;7.00;5.00;1.50
65556;PMS3003;52200;53.490;14.376;2022-09-09T13:11:44;7.00;5.00;1.00
65556;PMS3003;52200;53.490;14.376;2022-09-09T13:14:27;5.20;3.40;2.00
65556;PMS3003;52200;53.490;14.376;2022-09-09T13:17:01;5.60;2.80;1.00
65556;PMS3003;52200;53.490;14.376;2022-09-09T13:19:38;7.40;4.80;2.00
65556;PMS3003;52200;53.490;14.376;2022-09-09T13:25:19;7.00;4.00;2.00
65556;PMS3003;52200;53.490;14.376;2022-09-09T13:27:59;7.00;3.00;2.00
65556;PMS3003;52200;53.490;14.376;2022-09-09T13:30:33;7.00;3.80;2.00
65556;PMS3003;52200;53.490;14.376;2022-09-09T13:35:34;7.00;3.00;1.40
65556;PMS3003;52200;53.490;14.376;2022-09-09T13:38:13;7.00;4.00;2.00
65556;PMS3003;52200;53.490;14.376;2022-09-09T13:40:40;7.00;3.60;1.80
65556;PMS3003;52200;53.490;14.376;2022-09-09T13:43:10;9.25;3.00;2.00
65556;PMS3003;52200;53.490;14.376;2022-09-09T13:45:51;6.40;3.00;1.00
65556;PMS3003;52200;53.490;14.376;2022-09-09T13:48:40;6.80;3.00;1.60
65556;PMS3003;52200;53.490;14.376;2022-09-09T13:51:32;8.50;4.00;2.00
65556;PMS3003;52200;53.490;14.376;2022-09-09T13:53:54;7.60;4.00;2.80
65556;PMS3003;52200;53.490;14.376;2022-09-09T13:56:19;8.00;5.50;2.00
65556;PMS3003;52200;53.490;14.376;2022-09-09T13:58:45;8.25;5.25;2.75
65556;PMS3003;52200;53.490;14.376;2022-09-09T14:01:12;8.25;4.25;2.00
65556;PMS3003;52200;53.490;14.376;2022-09-09T14:03:38;7.80;4.00;2.60
65556;PMS3003;52200;53.490;14.376;2022-09-09T14:06:03;8.25;5.00;2.00
65556;PMS3003;52200;53.490;14.376;2022-09-09T14:08:29;7.75;5.00;2.00
65556;PMS3003;52200;53.490;14.376;2022-09-09T14:11:02;7.20;5.00;2.00
65556;PMS3003;52200;53.490;14.376;2022-09-09T14:13:28;8.00;5.40;2.20
65556;PMS3003;52200;53.490;14.376;2022-09-09T14:15:53;8.00;4.50;2.00
65556;PMS3003;52200;53.490;14.376;2022-09-09T14:18:19;7.25;5.00;2.50
65556;PMS3003;52200;53.490;14.376;2022-09-09T14:20:44;6.00;3.00;1.00
65556;PMS3003;52200;53.490;14.376;2022-09-09T14:23:11;7.50;4.00;2.00
65556;PMS3003;52200;53.490;14.376;2022-09-09T14:25:39;7.80;3.00;1.00
65556;PMS3003;52200;53.490;14.376;2022-09-09T14:28:07;6.80;2.80;1.00
65556;PMS3003;52200;53.490;14.376;2022-09-09T14:30:34;8.20;3.20;2.00
65556;PMS3003;52200;53.490;14.376;2022-09-09T14:32:59;6.00;3.00;1.00
65556;PMS3003;52200;53.490;14.376;2022-09-09T14:35:25;7.00;3.25;1.75
65556;PMS3003;52200;53.490;14.376;2022-09-09T14:37:50;6.25;3.00;1.00
65556;PMS3003;52200;53.490;14.376;2022-09-09T14:40:16;6.00;3.00;1.00
65556;PMS3003;52200;53.490;14.376;2022-09-09T14:42:42;7.25;4.50;2.50
65556;PMS3003;52200;53.490;14.376;2022-09-09T14:45:08;8.50;3.50;2.00
65556;PMS3003;52200;53.490;14.376;2022-09-09T14:47:34;6.60;3.60;1.00
65556;PMS3003;52200;53.490;14.376;2022-09-09T14:50:00;6.00;3.00;2.00
65556;PMS3003;52200;53.490;14.376;2022-09-09T14:52:26;6.00;2.00;1.00
65556;PMS3003;52200;53.490;14.376;2022-09-09T14:54:51;6.00;2.25;1.00
65556;PMS3003;52200;53.490;14.376;2022-09-09T14:57:16;7.00;2.75;0.75
65556;PMS3003;52200;53.490;14.376;2022-09-09T14:59:42;6.75;3.00;1.00
65556;PMS3003;52200;53.490;14.376;2022-09-09T15:02:08;4.75;1.00;0.25
65556;PMS3003;52200;53.490;14.376;2022-09-09T15:04:35;5.00;3.60;1.00
65556;PMS3003;52200;53.490;14.376;2022-09-09T15:07:01;5.00;3.50;1.50
65556;PMS3003;52200;53.490;14.376;2022-09-09T15:09:26;4.00;3.00;1.00
65556;PMS3003;52200;53.490;14.376;2022-09-09T15:11:52;5.50;2.75;1.00
65556;PMS3003;52200;53.490;14.376;2022-09-09T15:14:17;6.50;3.75;1.25
65556;PMS3003;52200;53.490;14.376;2022-09-09T15:16:43;5.00;2.25;1.00
65556;PMS3003;52200;53.490;14.376;2022-09-09T15:19:08;6.00;2.00;0.00
65556;PMS3003;52200;53.490;14.376;2022-09-09T15:21:35;6.75;2.25;0.25
65556;PMS3003;52200;53.490;14.376;2022-09-09T15:24:02;6.60;2.00;1.00
65556;PMS3003;52200;53.490;14.376;2022-09-09T15:26:29;7.40;3.00;1.40
65556;PMS3003;52200;53.490;14.376;2022-09-09T15:28:55;6.00;2.00;0.00
65556;PMS3003;52200;53.490;14.376;2022-09-09T15:31:24;5.75;2.00;0.25
65556;PMS3003;52200;53.490;14.376;2022-09-09T15:33:56;5.40;2.60;1.00
65556;PMS3003;52200;53.490;14.376;2022-09-09T15:36:33;5.60;2.20;1.00
65556;PMS3003;52200;53.490;14.376;2022-09-09T15:39:04;7.60;3.40;1.00
65556;PMS3003;52200;53.490;14.376;2022-09-09T15:41:32;8.80;2.00;1.00
65556;PMS3003;52200;53.490;14.376;2022-09-09T15:43:58;8.00;4.00;2.60
65556;PMS3003;52200;53.490;14.376;2022-09-09T15:46:34;7.00;2.80;1.00
65556;PMS3003;52200;53.490;14.376;2022-09-09T15:49:03;6.80;2.60;1.00
65556;PMS3003;52200;53.490;14.376;2022-09-09T15:51:34;7.60;3.00;1.80
65556;PMS3003;52200;53.490;14.376;2022-09-09T15:54:00;6.00;3.00;1.00
65556;PMS3003;52200;53.490;14.376;2022-09-09T15:56:26;7.80;2.60;1.00
65556;PMS3003;52200;53.490;14.376;2022-09-09T15:58:53;7.00;3.60;2.00
65556;PMS3003;52200;53.490;14.376;2022-09-09T16:01:20;6.60;3.00;2.00
65556;PMS3003;52200;53.490;14.376;2022-09-09T16:03:46;6.75;3.75;2.00
65556;PMS3003;52200;53.490;14.376;2022-09-09T16:06:16;7.20;3.20;1.00